createdAt,value
2023-10-17T00:01:34.362Z,5.40
2023-10-17T00:04:12.844Z,5.20
2023-10-17T00:06:40.966Z,6.50
2023-10-17T00:09:09.322Z,6.10
2023-10-17T00:11:59.830Z,5.60
2023-10-17T00:14:50.712Z,8.40
2023-10-17T00:17:18.683Z,5.70
2023-10-17T00:19:46.798Z,5.60
2023-10-17T00:22:19.549Z,7.10
2023-10-17T00:24:48.459Z,5.10
2023-10-17T00:27:16.892Z,5.90
2023-10-17T00:29:45.021Z,7.30
2023-10-17T00:32:14.165Z,7.70
2023-10-17T00:34:42.266Z,6.10
2023-10-17T00:37:13.190Z,5.80
2023-10-17T00:39:41.376Z,6.60
2023-10-17T00:42:09.792Z,7.20
2023-10-17T00:44:45.366Z,8.60
2023-10-17T00:47:14.486Z,5.50
2023-10-17T00:49:43.342Z,5.30
2023-10-17T00:52:19.248Z,5.40
2023-10-17T00:54:48.521Z,4.90
2023-10-17T00:57:16.803Z,5.40
2023-10-17T00:59:54.689Z,5.00
2023-10-17T01:02:25.287Z,6.10
2023-10-17T01:04:53.971Z,7.10
2023-10-17T01:07:31.482Z,5.20
2023-10-17T01:10:18.101Z,5.90
2023-10-17T01:13:04.588Z,5.80
2023-10-17T01:15:39.907Z,6.10
2023-10-17T01:18:08.153Z,6.10
2023-10-17T01:20:37.092Z,6.50
2023-10-17T01:23:05.611Z,5.70
2023-10-17T01:25:36.856Z,6.80
2023-10-17T01:28:07.840Z,5.90
2023-10-17T01:30:35.973Z,7.10
2023-10-17T01:33:04.312Z,6.20
2023-10-17T01:35:33.868Z,5.30
2023-10-17T01:38:01.901Z,6.60
2023-10-17T01:40:30.172Z,5.30
2023-10-17T01:42:58.641Z,8.00
2023-10-17T01:45:29.056Z,6.40
2023-10-17T01:47:57.430Z,6.00
2023-10-17T01:50:25.781Z,5.20
2023-10-17T01:53:01.101Z,5.40
2023-10-17T01:55:29.907Z,6.90
2023-10-17T01:57:59.705Z,6.00
2023-10-17T02:00:40.306Z,8.00
2023-10-17T02:03:09.117Z,5.90
2023-10-17T02:05:37.569Z,5.50
2023-10-17T02:08:06.784Z,5.40
2023-10-17T02:10:35.076Z,4.90
2023-10-17T02:13:06.124Z,6.50
2023-10-17T02:15:35.800Z,5.50
2023-10-17T02:18:13.873Z,6.00
2023-10-17T02:20:54.635Z,6.00
2023-10-17T02:23:27.238Z,5.90
2023-10-17T02:25:56.085Z,5.80
2023-10-17T02:28:25.806Z,6.50
2023-10-17T02:30:54.082Z,5.40
2023-10-17T02:33:22.333Z,6.90
2023-10-17T02:36:14.497Z,7.80
2023-10-17T02:38:43.137Z,7.30
2023-10-17T02:41:14.611Z,5.80
2023-10-17T02:43:43.142Z,5.70
2023-10-17T02:46:13.876Z,5.60
2023-10-17T02:48:47.392Z,5.70
2023-10-17T02:51:23.712Z,5.50
2023-10-17T02:53:53.298Z,6.10
2023-10-17T02:56:22.327Z,5.60
2023-10-17T02:59:00.658Z,6.60
2023-10-17T03:01:28.932Z,5.80
2023-10-17T03:03:56.915Z,6.20
2023-10-17T03:06:25.027Z,6.50
2023-10-17T03:08:53.262Z,6.50
2023-10-17T03:11:37.146Z,7.00
2023-10-17T03:14:14.048Z,6.10
2023-10-17T03:16:44.776Z,10.50
2023-10-17T03:19:14.272Z,7.10
2023-10-17T03:21:45.297Z,9.70
2023-10-17T03:24:14.475Z,7.30
2023-10-17T03:26:55.360Z,6.40
2023-10-17T03:29:24.845Z,6.90
2023-10-17T03:32:04.984Z,7.30
2023-10-17T03:34:36.827Z,7.70
2023-10-17T03:37:29.545Z,10.40
2023-10-17T03:40:02.227Z,9.20
2023-10-17T03:42:50.525Z,9.70
2023-10-17T03:45:19.627Z,8.90
2023-10-17T03:47:49.356Z,8.20
2023-10-17T03:50:33.071Z,9.90
2023-10-17T03:53:06.471Z,11.70
2023-10-17T03:55:36.812Z,9.20
2023-10-17T03:58:19.880Z,10.30
2023-10-17T04:00:48.102Z,14.00
2023-10-17T04:03:31.835Z,9.70
2023-10-17T04:06:22.233Z,13.40
2023-10-17T04:08:50.506Z,9.70
2023-10-17T04:11:24.336Z,10.60
2023-10-17T04:13:58.445Z,11.30
2023-10-17T04:16:40.128Z,10.60
2023-10-17T04:19:27.270Z,10.90
2023-10-17T04:22:06.388Z,12.80
2023-10-17T04:24:40.290Z,11.40
2023-10-17T04:27:08.720Z,10.50
2023-10-17T04:29:36.925Z,11.10
2023-10-17T04:32:13.773Z,10.60
2023-10-17T04:34:48.233Z,24.10
2023-10-17T04:37:18.328Z,12.90
2023-10-17T04:39:50.673Z,13.90
2023-10-17T04:42:27.674Z,13.90
2023-10-17T04:45:04.805Z,12.60
2023-10-17T04:47:33.610Z,18.40
2023-10-17T04:50:02.977Z,17.50
2023-10-17T04:52:41.890Z,19.60
2023-10-17T04:55:20.133Z,15.10
2023-10-17T04:57:54.859Z,18.90
2023-10-17T05:00:39.276Z,27.90
2023-10-17T05:03:30.571Z,22.50
2023-10-17T05:06:15.436Z,24.40
2023-10-17T05:09:02.733Z,28.70
2023-10-17T05:11:49.467Z,28.30
2023-10-17T05:14:52.263Z,26.30
2023-10-17T05:17:39.329Z,30.80
2023-10-17T05:20:26.853Z,35.90
2023-10-17T05:23:13.357Z,30.60
2023-10-17T05:26:00.155Z,28.20
2023-10-17T05:28:57.759Z,27.00
2023-10-17T05:31:52.413Z,36.60
2023-10-17T05:34:38.970Z,39.40
2023-10-17T05:37:25.466Z,28.10
2023-10-17T05:40:12.036Z,25.90
2023-10-17T05:42:58.434Z,34.20
2023-10-17T05:45:45.124Z,25.00
2023-10-17T05:48:31.681Z,24.60
2023-10-17T05:51:18.405Z,28.10
2023-10-17T05:54:31.186Z,39.90
2023-10-17T05:57:15.552Z,40.70
2023-10-17T06:00:02.320Z,34.90
2023-10-17T06:02:51.507Z,29.10
2023-10-17T06:05:38.125Z,30.20
2023-10-17T06:08:24.848Z,41.10
2023-10-17T06:11:15.183Z,40.60
2023-10-17T06:14:01.592Z,36.20
2023-10-17T06:16:48.203Z,34.70
2023-10-17T06:19:22.810Z,28.10
2023-10-17T06:22:03.510Z,21.10
2023-10-17T06:24:47.190Z,25.30
2023-10-17T06:27:35.668Z,28.20
2023-10-17T06:30:23.248Z,27.10
2023-10-17T06:33:03.741Z,45.40
2023-10-17T06:35:33.235Z,53.40
2023-10-17T06:38:01.464Z,43.20
2023-10-17T06:40:45.644Z,27.30
2023-10-17T06:43:15.665Z,32.30
2023-10-17T06:45:56.360Z,54.30
2023-10-17T06:48:34.044Z,40.00
2023-10-17T06:51:22.352Z,34.40
2023-10-17T06:53:53.293Z,31.50
2023-10-17T06:56:21.302Z,25.90
2023-10-17T06:58:51.745Z,24.10
2023-10-17T07:01:26.834Z,25.90
2023-10-17T07:03:57.883Z,37.70
2023-10-17T07:06:26.127Z,35.00
2023-10-17T07:08:54.722Z,33.10
2023-10-17T07:11:27.701Z,27.50
2023-10-17T07:14:11.406Z,23.70
2023-10-17T07:16:42.645Z,24.40
2023-10-17T07:19:31.300Z,40.20
2023-10-17T07:22:02.758Z,34.00
2023-10-17T07:24:38.650Z,30.00
2023-10-17T07:27:20.506Z,34.60
2023-10-17T07:30:11.431Z,28.60
2023-10-17T07:32:50.779Z,24.30
2023-10-17T07:35:25.707Z,29.40
2023-10-17T07:37:57.660Z,24.40
2023-10-17T07:40:41.845Z,23.60
2023-10-17T07:43:10.033Z,21.30
2023-10-17T07:45:41.104Z,19.30
2023-10-17T07:48:26.817Z,20.10
2023-10-17T07:50:59.053Z,14.90
2023-10-17T07:53:33.434Z,59.40
2023-10-17T07:56:13.913Z,21.20
2023-10-17T07:58:44.719Z,18.90
2023-10-17T08:01:17.084Z,23.00
2023-10-17T08:03:56.933Z,21.50
2023-10-17T08:06:30.690Z,18.50
2023-10-17T08:09:00.797Z,15.50
2023-10-17T08:11:31.850Z,19.50
2023-10-17T08:14:10.135Z,14.80
2023-10-17T08:16:44.654Z,16.10
2023-10-17T08:19:25.193Z,19.20
2023-10-17T08:22:08.179Z,22.10
2023-10-17T08:24:45.607Z,12.90
2023-10-17T08:27:22.656Z,16.70
2023-10-17T08:30:06.553Z,19.40
2023-10-17T08:37:48.579Z,13.20
2023-10-17T08:40:35.408Z,12.30
2023-10-17T08:43:18.001Z,20.40
2023-10-17T08:45:52.189Z,12.70
2023-10-17T08:48:21.218Z,13.70
2023-10-17T08:50:49.708Z,17.80
2023-10-17T08:53:24.938Z,9.60
2023-10-17T08:55:53.587Z,13.70
2023-10-17T08:58:26.313Z,9.20
2023-10-17T09:00:57.890Z,6.70
2023-10-17T09:03:37.575Z,6.90
2023-10-17T09:06:15.585Z,6.70
2023-10-17T09:09:02.627Z,9.90
2023-10-17T09:11:31.144Z,8.30
2023-10-17T09:14:19.005Z,9.70
2023-10-17T09:17:25.214Z,10.60
2023-10-17T09:19:54.143Z,9.00
2023-10-17T09:22:25.275Z,10.40
2023-10-17T09:24:53.406Z,8.80
2023-10-17T09:27:21.473Z,7.40
2023-10-17T09:29:52.808Z,8.10
2023-10-17T09:32:36.036Z,9.20
2023-10-17T09:35:12.710Z,12.80
2023-10-17T09:37:43.107Z,9.20
2023-10-17T09:40:19.954Z,22.40
2023-10-17T09:42:48.821Z,31.90
2023-10-17T09:45:33.165Z,16.40
2023-10-17T09:48:06.808Z,12.80
2023-10-17T09:50:38.558Z,13.10
2023-10-17T09:53:21.000Z,17.20
2023-10-17T09:55:50.732Z,9.60
2023-10-17T09:58:24.365Z,9.10
2023-10-17T10:03:29.418Z,8.90
2023-10-17T10:06:21.143Z,6.30
2023-10-17T10:08:49.848Z,9.10
2023-10-17T10:11:17.852Z,11.30
2023-10-17T10:14:09.531Z,9.70
2023-10-17T10:16:53.860Z,9.20
2023-10-17T10:19:43.604Z,18.60
2023-10-17T10:22:14.617Z,13.80
2023-10-17T10:24:44.679Z,12.70
2023-10-17T10:27:15.809Z,10.40
2023-10-17T10:29:48.004Z,9.00
2023-10-17T10:32:34.610Z,8.10
2023-10-17T10:35:05.242Z,8.80
2023-10-17T10:37:48.836Z,8.30
2023-10-17T10:40:27.348Z,10.30
2023-10-17T10:43:02.326Z,8.20
2023-10-17T10:45:38.215Z,7.80
2023-10-17T10:48:18.785Z,6.10
2023-10-17T10:50:49.763Z,6.40
2023-10-17T10:53:25.651Z,10.50
2023-10-17T10:56:02.141Z,7.00
2023-10-17T10:58:32.410Z,10.40
2023-10-17T11:01:03.577Z,6.80
2023-10-17T11:03:34.785Z,5.90
2023-10-17T11:06:09.421Z,6.90
2023-10-17T11:08:47.542Z,20.40
2023-10-17T11:11:17.924Z,6.30
2023-10-17T11:13:51.235Z,7.10
2023-10-17T11:16:22.427Z,6.80
2023-10-17T11:18:50.907Z,6.90
2023-10-17T11:21:21.589Z,5.70
2023-10-17T11:23:52.076Z,7.40
2023-10-17T11:26:29.308Z,6.20
2023-10-17T11:28:59.681Z,5.00
2023-10-17T11:31:28.247Z,6.60
2023-10-17T11:34:04.452Z,6.50
2023-10-17T11:36:46.757Z,6.60
2023-10-17T11:39:19.735Z,6.30
2023-10-17T11:41:56.283Z,4.50
2023-10-17T11:44:26.842Z,7.70
2023-10-17T11:47:04.998Z,6.10
2023-10-17T11:49:42.922Z,3.60
2023-10-17T11:52:14.430Z,5.00
2023-10-17T11:54:56.927Z,3.70
2023-10-17T11:57:26.621Z,4.80
2023-10-17T12:00:20.830Z,8.10
2023-10-17T12:02:50.302Z,11.90
2023-10-17T12:05:20.322Z,5.00
2023-10-17T12:07:51.253Z,4.40
2023-10-17T12:10:21.075Z,6.20
2023-10-17T12:12:53.666Z,6.80
2023-10-17T12:15:22.265Z,5.50
2023-10-17T12:17:51.381Z,6.80
2023-10-17T12:20:27.589Z,5.10
2023-10-17T12:22:57.266Z,4.90
2023-10-17T12:25:25.684Z,4.40
2023-10-17T12:27:58.541Z,12.10
2023-10-17T12:30:33.877Z,6.20
2023-10-17T12:33:01.887Z,6.90
2023-10-17T12:35:29.986Z,8.50
2023-10-17T12:38:07.919Z,4.40
2023-10-17T12:40:35.871Z,5.00
2023-10-17T12:43:04.092Z,4.80
2023-10-17T12:45:32.172Z,4.20
2023-10-17T12:48:00.635Z,4.60
2023-10-17T12:50:29.248Z,6.00
2023-10-17T12:52:57.265Z,4.80
2023-10-17T12:55:25.278Z,4.40
2023-10-17T12:57:53.317Z,4.80
2023-10-17T13:00:27.150Z,3.50
2023-10-17T13:02:57.315Z,8.30
2023-10-17T13:05:27.529Z,6.00
2023-10-17T13:07:55.902Z,11.10
2023-10-17T13:10:24.308Z,8.00
2023-10-17T13:12:52.449Z,6.00
2023-10-17T13:15:20.644Z,2.90
2023-10-17T13:17:53.519Z,7.40
2023-10-17T13:20:34.889Z,6.50
2023-10-17T13:23:12.913Z,6.00
2023-10-17T13:25:41.160Z,7.80
2023-10-17T13:28:09.164Z,5.40
2023-10-17T13:30:37.678Z,4.30
2023-10-17T13:33:06.206Z,5.00
2023-10-17T13:35:38.469Z,22.30
2023-10-17T13:38:06.778Z,30.70
2023-10-17T13:40:34.986Z,15.00
2023-10-17T13:43:03.051Z,10.20
2023-10-17T13:45:36.520Z,7.50
2023-10-17T13:48:06.008Z,9.70
2023-10-17T13:50:34.131Z,5.80
2023-10-17T13:53:08.215Z,4.20
2023-10-17T13:55:42.695Z,9.00
2023-10-17T13:58:12.985Z,11.90
2023-10-17T14:00:44.517Z,5.20
2023-10-17T14:03:16.038Z,5.30
2023-10-17T14:05:48.949Z,8.30
2023-10-17T14:08:19.649Z,8.60
2023-10-17T14:10:50.567Z,8.80
2023-10-17T14:13:19.752Z,10.60
2023-10-17T14:15:48.982Z,5.50
2023-10-17T14:18:18.068Z,6.50
2023-10-17T14:21:05.478Z,3.90
2023-10-17T14:23:46.853Z,4.80
2023-10-17T14:26:16.841Z,9.40
2023-10-17T14:28:45.336Z,8.50
2023-10-17T14:31:13.469Z,10.40
2023-10-17T14:33:41.546Z,7.40
2023-10-17T14:36:14.626Z,6.50
2023-10-17T14:38:43.079Z,9.40
2023-10-17T14:41:13.037Z,9.40
2023-10-17T14:43:50.792Z,7.20
2023-10-17T14:46:21.874Z,6.60
2023-10-17T14:48:50.117Z,14.70
2023-10-17T14:51:18.271Z,14.30
2023-10-17T14:53:51.721Z,5.50
2023-10-17T14:56:22.933Z,20.40
2023-10-17T14:58:51.813Z,14.90
2023-10-17T15:01:20.777Z,13.10
2023-10-17T15:03:49.950Z,24.20
2023-10-17T15:06:19.254Z,17.40
2023-10-17T15:08:47.442Z,22.90
2023-10-17T15:11:15.765Z,10.70
2023-10-17T15:13:45.299Z,14.10
2023-10-17T15:16:17.914Z,11.10
2023-10-17T15:18:46.705Z,14.30
2023-10-17T15:21:16.681Z,12.90
2023-10-17T15:23:44.941Z,17.60
2023-10-17T15:26:13.263Z,17.60
2023-10-17T15:28:45.750Z,15.40
2023-10-17T15:31:18.116Z,22.20
2023-10-17T15:33:46.747Z,23.00
2023-10-17T15:36:15.218Z,22.40
2023-10-17T15:38:44.229Z,22.50
2023-10-17T15:41:17.325Z,23.10
2023-10-17T15:43:46.802Z,21.90
2023-10-17T15:46:16.953Z,33.70
2023-10-17T15:48:45.895Z,24.20
2023-10-17T15:51:21.267Z,14.80
2023-10-17T15:53:49.667Z,14.10
2023-10-17T15:56:17.840Z,16.60
2023-10-17T15:58:47.229Z,18.00
2023-10-17T16:01:15.460Z,32.80
2023-10-17T16:03:47.856Z,38.00
2023-10-17T16:06:17.147Z,33.50
2023-10-17T16:08:47.109Z,34.40
2023-10-17T16:11:17.403Z,36.40
2023-10-17T16:13:45.807Z,42.30
2023-10-17T16:16:14.435Z,29.20
2023-10-17T16:18:42.891Z,22.30
2023-10-17T16:21:11.706Z,23.00
2023-10-17T16:23:40.358Z,22.80
2023-10-17T16:26:10.059Z,13.70
2023-10-17T16:28:38.235Z,14.50
2023-10-17T16:31:09.301Z,17.80
2023-10-17T16:33:37.542Z,14.90
2023-10-17T16:36:07.361Z,15.00
2023-10-17T16:38:35.615Z,18.00
2023-10-17T16:41:04.780Z,16.80
2023-10-17T16:43:33.401Z,18.90
2023-10-17T16:46:02.194Z,19.10
2023-10-17T16:48:30.937Z,20.20
2023-10-17T16:50:59.330Z,24.80
2023-10-17T16:53:32.120Z,27.50
2023-10-17T16:56:04.385Z,35.00
2023-10-17T16:58:35.858Z,31.50
2023-10-17T17:01:08.310Z,34.00
2023-10-17T17:03:37.090Z,31.40
2023-10-17T17:06:09.501Z,34.80
2023-10-17T17:08:38.344Z,39.70
2023-10-17T17:11:06.639Z,34.40
2023-10-17T17:13:35.609Z,37.40
2023-10-17T17:16:04.683Z,42.50
2023-10-17T17:21:09.787Z,30.80
2023-10-17T17:23:38.657Z,35.50
2023-10-17T17:26:09.019Z,36.90
2023-10-17T17:28:37.186Z,37.90
2023-10-17T17:31:07.135Z,33.10
2023-10-17T17:33:35.560Z,37.10
2023-10-17T17:36:05.784Z,40.40
2023-10-17T17:38:36.313Z,36.90
2023-10-17T17:41:06.736Z,30.80
2023-10-17T17:43:35.494Z,35.40
2023-10-17T17:46:07.245Z,29.60
2023-10-17T17:48:36.599Z,32.60
2023-10-17T17:51:05.162Z,38.00
2023-10-17T17:53:33.371Z,54.10
2023-10-17T17:56:02.417Z,49.40
2023-10-17T17:58:31.989Z,43.00
2023-10-17T18:01:01.344Z,43.70
2023-10-17T18:03:29.607Z,47.20
2023-10-17T18:05:57.739Z,56.20
2023-10-17T18:08:27.378Z,58.30
2023-10-17T18:10:55.438Z,50.70
2023-10-17T18:13:23.999Z,44.40
2023-10-17T18:15:54.825Z,44.50
2023-10-17T18:18:23.552Z,43.20
2023-10-17T18:21:08.817Z,42.70
2023-10-17T18:23:39.458Z,43.10
2023-10-17T18:26:14.546Z,45.80
2023-10-17T18:28:42.862Z,53.20
2023-10-17T18:31:15.202Z,56.60
2023-10-17T18:33:45.376Z,56.20
2023-10-17T18:36:15.178Z,62.60
2023-10-17T18:38:47.374Z,68.90
2023-10-17T18:41:15.714Z,63.00
2023-10-17T18:43:44.050Z,79.30
2023-10-17T18:46:13.843Z,89.00
2023-10-17T18:48:42.271Z,81.80
2023-10-17T18:51:11.934Z,73.70
2023-10-17T18:53:40.409Z,77.50
2023-10-17T18:56:10.099Z,71.10
2023-10-17T18:58:40.551Z,71.60
2023-10-17T19:01:14.840Z,66.20
2023-10-17T19:03:45.564Z,70.10
2023-10-17T19:06:14.668Z,70.10
2023-10-17T19:08:43.988Z,73.10
2023-10-17T19:11:13.813Z,74.40
2023-10-17T19:13:42.913Z,74.70
2023-10-17T19:16:12.355Z,74.90
2023-10-17T19:18:41.655Z,60.20
2023-10-17T19:21:13.665Z,65.90
2023-10-17T19:23:44.759Z,57.00
2023-10-17T19:26:14.497Z,58.00
2023-10-17T19:28:46.602Z,60.20
2023-10-17T19:31:15.736Z,55.50
2023-10-17T19:33:43.882Z,66.10
2023-10-17T19:36:12.063Z,60.10
2023-10-17T19:38:41.087Z,58.30
2023-10-17T19:41:10.224Z,59.80
2023-10-17T19:43:38.203Z,58.70
2023-10-17T19:46:07.376Z,56.30
2023-10-17T19:48:35.813Z,59.90
2023-10-17T19:51:11.479Z,59.30
2023-10-17T19:53:44.325Z,68.90
2023-10-17T19:56:13.296Z,65.60
2023-10-17T19:58:42.386Z,57.90
2023-10-17T20:01:12.554Z,55.20
2023-10-17T20:03:40.966Z,46.30
2023-10-17T20:06:09.206Z,46.70
2023-10-17T20:08:37.432Z,43.80
2023-10-17T20:11:06.687Z,43.60
2023-10-17T20:13:34.820Z,48.90
2023-10-17T20:16:07.106Z,50.40
2023-10-17T20:18:38.251Z,48.10
2023-10-17T20:21:07.951Z,50.00
2023-10-17T20:23:39.287Z,46.90
2023-10-17T20:26:07.331Z,47.00
2023-10-17T20:28:36.371Z,48.20
2023-10-17T20:31:16.646Z,49.50
2023-10-17T20:33:53.570Z,61.50
2023-10-17T20:36:23.898Z,72.40
2023-10-17T20:38:51.988Z,71.20
2023-10-17T20:41:27.628Z,60.90
2023-10-17T20:43:56.061Z,65.20
2023-10-17T20:46:28.483Z,73.70
2023-10-17T20:49:00.149Z,61.90
2023-10-17T20:51:28.363Z,60.20
2023-10-17T20:53:56.495Z,63.50
2023-10-17T20:56:38.589Z,61.60
2023-10-17T20:59:12.013Z,60.30
2023-10-17T21:01:40.453Z,58.50
2023-10-17T21:04:08.749Z,54.60
2023-10-17T21:06:36.923Z,50.70
2023-10-17T21:09:06.250Z,50.50
2023-10-17T21:11:34.222Z,44.50
2023-10-17T21:14:02.226Z,45.30
2023-10-17T21:16:30.379Z,52.50
2023-10-17T21:18:58.889Z,45.40
2023-10-17T21:21:27.274Z,50.10
2023-10-17T21:23:55.474Z,47.50
2023-10-17T21:26:23.558Z,46.50
2023-10-17T21:28:51.822Z,42.50
2023-10-17T21:31:20.070Z,45.60
2023-10-17T21:33:48.176Z,49.70
2023-10-17T21:36:16.248Z,53.50
2023-10-17T21:38:46.114Z,47.50
2023-10-17T21:41:14.361Z,47.70
2023-10-17T21:43:42.424Z,50.40
2023-10-17T21:46:12.720Z,45.20
2023-10-17T21:48:46.237Z,47.90
2023-10-17T21:51:16.208Z,51.70
2023-10-17T21:53:45.671Z,42.80
2023-10-17T21:56:15.382Z,43.70
2023-10-17T21:58:47.886Z,45.10
2023-10-17T22:01:21.562Z,42.00
2023-10-17T22:03:50.409Z,40.50
2023-10-17T22:06:21.634Z,40.20
2023-10-17T22:08:50.188Z,48.90
2023-10-17T22:11:19.777Z,49.10
2023-10-17T22:13:52.572Z,41.10
2023-10-17T22:16:21.827Z,43.60
2023-10-17T22:18:50.464Z,45.60
2023-10-17T22:21:21.543Z,47.30
2023-10-17T22:23:51.780Z,42.70
2023-10-17T22:26:20.451Z,37.00
2023-10-17T22:28:48.629Z,34.50
2023-10-17T22:31:17.101Z,37.60
2023-10-17T22:33:45.475Z,36.10
2023-10-17T22:36:13.508Z,36.50
2023-10-17T22:38:42.037Z,32.00
2023-10-17T22:41:11.285Z,33.10
2023-10-17T22:43:39.530Z,36.00
2023-10-17T22:46:09.600Z,30.50
2023-10-17T22:48:38.501Z,33.40
2023-10-17T22:51:06.913Z,36.40
2023-10-17T22:53:35.106Z,38.50
2023-10-17T22:56:05.092Z,38.80
2023-10-17T22:58:33.183Z,42.30
2023-10-17T23:01:01.217Z,43.20
2023-10-17T23:03:29.363Z,44.80
2023-10-17T23:05:57.407Z,44.30
2023-10-17T23:08:25.741Z,46.10
2023-10-17T23:10:53.787Z,42.70
2023-10-17T23:13:22.530Z,45.40
2023-10-17T23:15:50.644Z,41.80
2023-10-17T23:18:18.785Z,36.30
2023-10-17T23:20:46.798Z,38.90
2023-10-17T23:23:14.823Z,39.70
2023-10-17T23:25:42.761Z,37.90
2023-10-17T23:28:12.474Z,38.00
2023-10-17T23:30:41.591Z,36.70
2023-10-17T23:33:10.092Z,36.50
2023-10-17T23:35:38.606Z,38.40
2023-10-17T23:38:06.665Z,35.40
2023-10-17T23:40:34.836Z,36.90
2023-10-17T23:43:03.241Z,35.20
2023-10-17T23:45:31.198Z,34.80
2023-10-17T23:47:59.523Z,34.30
2023-10-17T23:50:27.518Z,35.10
2023-10-17T23:52:56.155Z,36.60
2023-10-17T23:55:24.220Z,36.40
2023-10-17T23:57:53.598Z,39.60
